Time;durP1;ratioP1;P1;durP2;ratioP2;P2;SDS_P1;SDS_P2;PMS_P1;PMS_P2;Temp;Humidity;BMP_temperature;BMP_pressure;BME280_temperature;BME280_humidity;BME280_pressure;Samples;Min_cycle;Max_cycle;Signal;HPM_P1;HPM_P2
2023/03/22 00:00:45;;;;;;;7.57;6.40;;;9.50;99.90;;;;;;5031962;28;20211;-51
2023/03/22 00:03:14;;;;;;;7.73;6.93;;;9.50;99.90;;;;;;5024498;28;20232;-51
2023/03/22 00:05:41;;;;;;;6.20;5.60;;;9.50;99.90;;;;;;5029935;28;20652;-51
2023/03/22 00:08:08;;;;;;;10.53;9.43;;;9.50;99.90;;;;;;5029072;28;20256;-51
2023/03/22 00:10:37;;;;;;;12.33;11.33;;;9.60;99.90;;;;;;5024642;28;20227;-47
2023/03/22 00:13:05;;;;;;;9.53;8.63;;;9.60;99.90;;;;;;5023939;28;20211;-48
2023/03/22 00:15:32;;;;;;;11.50;10.37;;;9.60;99.90;;;;;;5024301;28;20224;-47
2023/03/22 00:18:00;;;;;;;11.97;9.37;;;9.60;99.90;;;;;;5030211;28;20555;-48
2023/03/22 00:20:30;;;;;;;6.90;5.13;;;9.60;99.90;;;;;;5033200;28;20316;-48
2023/03/22 00:22:57;;;;;;;4.53;4.13;;;9.60;99.90;;;;;;5033199;28;20255;-48
2023/03/22 00:25:24;;;;;;;6.23;4.73;;;9.60;99.90;;;;;;5031623;28;20726;-47
2023/03/22 00:27:51;;;;;;;5.03;4.63;;;9.80;99.90;;;;;;5032552;28;20206;-49
2023/03/22 00:30:18;;;;;;;5.50;5.00;;;9.90;99.90;;;;;;5029288;28;20212;-48
2023/03/22 00:32:45;;;;;;;5.13;4.67;;;9.90;99.90;;;;;;5032678;28;20267;-49
2023/03/22 00:35:13;;;;;;;6.20;5.13;;;10.00;99.90;;;;;;5030652;28;20225;-48
2023/03/22 00:37:41;;;;;;;7.47;5.30;;;10.20;99.90;;;;;;5030934;28;20213;-47
2023/03/22 00:40:12;;;;;;;6.23;5.47;;;10.20;99.90;;;;;;5029508;28;20705;-49
2023/03/22 00:42:41;;;;;;;7.13;4.97;;;10.30;99.90;;;;;;5031381;28;20219;-48
2023/03/22 00:45:10;;;;;;;5.23;4.53;;;10.30;99.90;;;;;;5029713;28;20220;-47
2023/03/22 00:47:37;;;;;;;5.73;5.23;;;10.30;99.90;;;;;;5022176;28;20332;-49
2023/03/22 00:50:06;;;;;;;5.57;5.17;;;10.30;99.90;;;;;;5032380;28;20199;-47
2023/03/22 00:52:33;;;;;;;6.47;5.83;;;10.30;99.90;;;;;;5031601;28;20200;-48
2023/03/22 00:55:02;;;;;;;5.30;4.90;;;10.30;99.90;;;;;;5026946;28;20222;-48
2023/03/22 00:57:29;;;;;;;5.47;5.07;;;10.30;99.90;;;;;;5032087;28;20287;-48
2023/03/22 00:59:57;;;;;;;6.07;5.57;;;10.30;99.90;;;;;;5032248;28;20228;-47
2023/03/22 01:02:28;;;;;;;4.50;4.20;;;10.30;99.90;;;;;;5026248;28;20200;-48
2023/03/22 01:04:56;;;;;;;4.73;4.33;;;10.30;99.90;;;;;;5032222;28;20249;-47
2023/03/22 01:07:23;;;;;;;6.43;4.10;;;10.20;99.90;;;;;;5031567;28;20662;-49
2023/03/22 01:09:51;;;;;;;5.07;4.37;;;10.10;99.90;;;;;;5020448;28;20223;-49
2023/03/22 01:12:20;;;;;;;4.90;4.50;;;10.20;99.90;;;;;;5025773;28;20223;-47
2023/03/22 01:14:47;;;;;;;6.60;4.37;;;10.10;99.90;;;;;;5031950;28;20255;-48
2023/03/22 01:17:14;;;;;;;7.43;4.70;;;10.00;99.90;;;;;;5032292;28;20212;-49
2023/03/22 01:19:41;;;;;;;5.33;4.93;;;10.00;99.90;;;;;;5022815;28;20228;-49
2023/03/22 01:22:09;;;;;;;5.47;5.17;;;9.90;99.90;;;;;;5031849;28;20200;-48
2023/03/22 01:24:36;;;;;;;5.00;4.60;;;9.90;99.90;;;;;;5029939;28;20224;-48
2023/03/22 01:27:03;;;;;;;5.23;4.83;;;9.90;99.90;;;;;;5031904;28;20842;-48
2023/03/22 01:29:31;;;;;;;5.20;4.87;;;9.80;99.90;;;;;;5031688;28;20200;-47
2023/03/22 01:31:59;;;;;;;4.73;4.33;;;9.80;99.90;;;;;;5031295;28;20200;-48
2023/03/22 01:34:26;;;;;;;4.57;4.27;;;9.80;99.90;;;;;;5027160;28;20216;-47
2023/03/22 01:36:54;;;;;;;4.70;4.40;;;9.80;99.90;;;;;;5031558;28;20233;-48
2023/03/22 01:39:21;;;;;;;4.57;4.23;;;9.80;99.90;;;;;;5024208;28;20200;-48
2023/03/22 01:41:48;;;;;;;6.03;4.33;;;9.70;99.90;;;;;;5029405;28;20592;-48
2023/03/22 01:44:18;;;;;;;4.20;3.87;;;9.80;99.90;;;;;;5029686;28;20738;-50
2023/03/22 01:46:47;;;;;;;5.20;4.80;;;9.70;99.90;;;;;;5031500;28;20666;-47
2023/03/22 01:49:19;;;;;;;6.67;6.03;;;9.70;99.90;;;;;;5023532;28;20204;-48
2023/03/22 01:51:50;;;;;;;5.67;5.17;;;9.70;99.90;;;;;;5029885;28;20680;-47
2023/03/22 01:54:22;;;;;;;9.57;8.83;;;9.70;99.90;;;;;;5022318;28;20243;-48
2023/03/22 01:56:50;;;;;;;7.80;6.83;;;9.70;99.90;;;;;;5030887;28;20200;-49
2023/03/22 01:59:17;;;;;;;6.57;5.93;;;9.60;99.90;;;;;;5031427;28;20206;-48
2023/03/22 02:01:45;;;;;;;5.40;5.10;;;9.60;99.90;;;;;;5031460;28;20229;-48
2023/03/22 02:04:18;;;;;;;14.43;13.00;;;9.60;99.90;;;;;;5029626;28;20282;-48
2023/03/22 02:06:46;;;;;;;14.03;12.83;;;9.50;99.90;;;;;;5031493;28;20300;-48
2023/03/22 02:09:16;;;;;;;7.87;7.07;;;9.60;99.90;;;;;;5020778;28;20764;-48
2023/03/22 02:11:46;;;;;;;10.03;9.13;;;9.70;99.90;;;;;;5029068;28;20287;-47
2023/03/22 02:14:44;;;;;;;5.63;4.93;;;9.60;99.90;;;;;;5025171;28;20220;-47
2023/03/22 02:17:29;;;;;;;5.60;5.03;;;9.60;99.90;;;;;;5017861;28;20200;-47
2023/03/22 02:20:40;;;;;;;5.00;4.70;;;9.40;99.90;;;;;;5030691;28;20201;-47
2023/03/22 02:23:58;;;;;;;6.63;5.77;;;9.30;99.90;;;;;;5019756;28;20211;-47
2023/03/22 02:26:52;;;;;;;12.30;11.20;;;9.30;99.90;;;;;;4985623;28;20205;-48
2023/03/22 02:29:28;;;;;;;6.50;6.00;;;9.20;99.90;;;;;;4970256;28;20211;-47
2023/03/22 02:32:28;;;;;;;6.13;5.63;;;9.30;99.90;;;;;;5010708;28;20198;-49
2023/03/22 02:35:21;;;;;;;13.37;12.13;;;9.20;99.90;;;;;;5026970;28;20224;-46
2023/03/22 02:38:30;;;;;;;6.73;6.13;;;9.20;99.90;;;;;;5027343;28;20777;-48
2023/03/22 02:41:08;;;;;;;7.07;6.57;;;9.00;99.90;;;;;;5031299;28;20220;-48
2023/03/22 02:43:38;;;;;;;6.63;6.13;;;9.00;99.90;;;;;;5022210;28;20205;-48
2023/03/22 02:46:10;;;;;;;5.47;5.07;;;8.90;99.90;;;;;;5025982;28;20595;-47
2023/03/22 02:48:44;;;;;;;6.80;4.90;;;8.70;99.90;;;;;;5024276;28;20204;-48
2023/03/22 02:51:17;;;;;;;5.30;4.83;;;8.60;99.90;;;;;;5017664;28;20205;-47
2023/03/22 02:53:48;;;;;;;5.43;4.93;;;8.60;99.90;;;;;;5028569;28;20209;-49
2023/03/22 02:56:21;;;;;;;7.20;6.70;;;8.50;99.90;;;;;;5028098;28;20210;-47
2023/03/22 02:58:52;;;;;;;7.30;5.67;;;8.50;99.90;;;;;;5031250;28;20210;-48
2023/03/22 03:01:25;;;;;;;5.67;5.27;;;8.50;99.90;;;;;;5027647;28;20243;-48
2023/03/22 03:03:56;;;;;;;5.97;5.37;;;8.50;99.90;;;;;;5030080;28;20210;-47
2023/03/22 03:06:26;;;;;;;8.57;7.03;;;8.60;99.90;;;;;;5032709;28;20202;-48
2023/03/22 03:08:56;;;;;;;6.13;5.57;;;8.50;99.90;;;;;;5030779;28;20213;-47
2023/03/22 03:11:25;;;;;;;6.20;5.70;;;8.30;99.90;;;;;;5030140;28;20224;-47
2023/03/22 03:13:52;;;;;;;9.30;5.47;;;8.20;99.90;;;;;;5034778;28;20216;-50
2023/03/22 03:16:25;;;;;;;5.60;5.20;;;8.10;99.90;;;;;;5027800;28;20201;-49
2023/03/22 03:18:59;;;;;;;6.10;5.50;;;8.00;99.90;;;;;;5020971;28;20210;-49
2023/03/22 03:21:34;;;;;;;9.90;9.17;;;8.00;99.90;;;;;;5030015;28;20239;-47
2023/03/22 03:24:15;;;;;;;7.20;6.63;;;7.90;99.90;;;;;;5028161;28;20200;-48
2023/03/22 03:26:52;;;;;;;5.53;5.13;;;7.90;99.90;;;;;;5031841;28;20202;-48
2023/03/22 03:29:24;;;;;;;6.60;5.57;;;7.80;99.90;;;;;;5034279;28;20207;-48
2023/03/22 03:31:57;;;;;;;5.87;5.27;;;7.70;99.90;;;;;;5033236;28;20682;-48
2023/03/22 03:34:26;;;;;;;5.33;4.83;;;7.70;99.90;;;;;;5033578;28;20216;-48
2023/03/22 03:36:57;;;;;;;5.17;4.70;;;7.70;99.90;;;;;;5031888;28;20204;-47
2023/03/22 03:39:28;;;;;;;5.47;5.07;;;7.60;99.90;;;;;;5033628;28;20213;-47
2023/03/22 03:41:58;;;;;;;4.97;4.53;;;7.60;99.90;;;;;;5033009;28;20216;-47
2023/03/22 03:44:26;;;;;;;3.80;3.60;;;7.60;99.90;;;;;;5025813;28;20223;-48
2023/03/22 03:46:55;;;;;;;5.63;5.20;;;7.50;99.90;;;;;;5033622;28;20204;-47
2023/03/22 03:49:25;;;;;;;5.27;4.87;;;7.50;99.90;;;;;;5016522;28;20271;-48
2023/03/22 03:51:54;;;;;;;6.07;5.23;;;7.50;99.90;;;;;;5023869;28;20212;-47
2023/03/22 03:54:22;;;;;;;5.33;4.83;;;7.50;99.90;;;;;;5029199;28;20231;-49
2023/03/22 03:56:49;;;;;;;5.20;4.90;;;7.50;99.90;;;;;;5024853;28;20744;-48
2023/03/22 03:59:19;;;;;;;4.53;3.90;;;7.50;99.90;;;;;;5032314;28;20266;-49
2023/03/22 04:01:51;;;;;;;4.93;3.90;;;7.40;99.90;;;;;;5030155;28;20231;-47
2023/03/22 04:04:24;;;;;;;4.43;4.03;;;7.40;99.90;;;;;;5026569;28;20269;-48
2023/03/22 04:06:52;;;;;;;4.20;3.87;;;7.30;99.90;;;;;;5032630;28;20250;-48
2023/03/22 04:09:20;;;;;;;5.00;4.03;;;7.20;99.90;;;;;;5032257;28;20253;-48
2023/03/22 04:11:47;;;;;;;3.63;3.33;;;7.20;99.90;;;;;;5033233;28;20240;-49
2023/03/22 04:14:14;;;;;;;3.57;3.23;;;7.10;99.90;;;;;;5023072;28;20220;-48
2023/03/22 04:16:42;;;;;;;4.53;4.23;;;7.10;99.90;;;;;;5017794;28;20214;-47
2023/03/22 04:19:09;;;;;;;4.53;3.97;;;7.10;99.90;;;;;;5033025;28;20207;-49
2023/03/22 04:21:36;;;;;;;3.83;3.53;;;7.10;99.90;;;;;;5031707;28;20227;-49
2023/03/22 04:24:04;;;;;;;7.30;6.80;;;7.10;99.90;;;;;;5022862;28;20708;-49
2023/03/22 04:26:31;;;;;;;10.20;9.30;;;7.10;99.90;;;;;;5026933;28;20207;-48
2023/03/22 04:28:58;;;;;;;5.97;5.53;;;7.10;99.90;;;;;;5022349;28;20663;-48
2023/03/22 04:31:26;;;;;;;6.70;5.93;;;7.10;99.90;;;;;;5031023;28;20202;-47
2023/03/22 04:33:55;;;;;;;6.87;5.73;;;7.00;99.90;;;;;;5032684;28;20205;-48
2023/03/22 04:36:23;;;;;;;5.50;5.10;;;7.00;99.90;;;;;;5026355;28;20218;-47
2023/03/22 04:38:50;;;;;;;6.07;5.47;;;7.00;99.90;;;;;;5021763;28;20261;-49
2023/03/22 04:41:18;;;;;;;18.27;16.60;;;7.00;99.90;;;;;;5031510;28;20225;-48
2023/03/22 04:43:49;;;;;;;5.93;5.43;;;7.00;99.90;;;;;;5030819;28;20208;-48
2023/03/22 04:46:20;;;;;;;7.40;4.90;;;7.00;99.90;;;;;;5024456;28;20201;-48
2023/03/22 04:48:47;;;;;;;5.40;4.90;;;7.10;99.90;;;;;;5030423;28;20214;-48
2023/03/22 04:51:16;;;;;;;6.03;5.43;;;7.10;99.90;;;;;;5032222;28;20200;-47
2023/03/22 04:53:44;;;;;;;5.83;5.17;;;7.10;99.90;;;;;;5032647;28;20234;-47
2023/03/22 04:56:12;;;;;;;5.43;5.03;;;7.10;99.90;;;;;;5032674;28;20212;-48
2023/03/22 04:58:41;;;;;;;7.33;5.90;;;7.00;99.90;;;;;;5032304;28;20208;-48
2023/03/22 05:01:08;;;;;;;5.77;5.37;;;7.00;99.90;;;;;;5032736;28;20227;-48
2023/03/22 05:03:36;;;;;;;8.33;5.67;;;6.90;99.90;;;;;;5032577;28;20204;-47
2023/03/22 05:06:06;;;;;;;7.67;5.83;;;6.90;99.90;;;;;;5023100;28;20311;-48
2023/03/22 05:08:35;;;;;;;10.83;9.73;;;6.90;99.90;;;;;;5031594;28;20224;-48
2023/03/22 05:11:07;;;;;;;6.80;6.17;;;6.90;99.90;;;;;;5032571;28;20586;-48
2023/03/22 05:13:35;;;;;;;6.40;5.73;;;6.80;99.90;;;;;;5031862;28;20208;-47
2023/03/22 05:16:02;;;;;;;6.87;6.10;;;6.80;99.90;;;;;;5032090;28;20270;-47
2023/03/22 05:18:31;;;;;;;6.07;5.50;;;6.80;99.90;;;;;;5032223;28;20300;-48
2023/03/22 05:21:02;;;;;;;5.47;4.77;;;6.80;99.90;;;;;;5027850;28;20582;-48
2023/03/22 05:23:29;;;;;;;6.53;5.60;;;6.70;99.90;;;;;;5023226;28;20223;-48
2023/03/22 05:26:00;;;;;;;5.20;4.57;;;6.70;99.90;;;;;;5023661;28;20293;-49
2023/03/22 05:28:27;;;;;;;5.77;5.27;;;6.70;99.90;;;;;;5031013;28;20192;-49
2023/03/22 05:30:54;;;;;;;5.77;5.23;;;6.70;99.90;;;;;;5031923;28;20200;-47
2023/03/22 05:33:21;;;;;;;6.10;5.60;;;6.70;99.90;;;;;;5031975;28;20211;-47
2023/03/22 05:35:49;;;;;;;7.37;5.93;;;6.70;99.90;;;;;;5031991;28;20234;-49
2023/03/22 05:38:16;;;;;;;6.10;5.60;;;6.70;99.90;;;;;;5031844;28;20793;-48
2023/03/22 05:40:43;;;;;;;5.97;5.43;;;6.70;99.90;;;;;;5029598;28;20260;-48
2023/03/22 05:43:12;;;;;;;5.87;4.87;;;6.60;99.90;;;;;;5025405;28;20275;-47
2023/03/22 05:45:39;;;;;;;5.73;4.80;;;6.70;99.90;;;;;;5032069;28;20578;-47
2023/03/22 05:48:06;;;;;;;12.33;5.73;;;6.70;99.90;;;;;;5031950;28;20321;-48
2023/03/22 05:50:34;;;;;;;12.13;7.27;;;6.70;99.90;;;;;;5020256;28;20200;-47
2023/03/22 05:53:02;;;;;;;7.27;6.27;;;6.70;99.90;;;;;;5030417;28;20625;-47
2023/03/22 05:55:30;;;;;;;8.13;6.67;;;6.70;99.90;;;;;;5040417;28;20233;-48
2023/03/22 05:58:03;;;;;;;9.40;7.00;;;6.80;99.90;;;;;;5022385;28;20210;-48
2023/03/22 06:00:32;;;;;;;8.50;7.70;;;6.70;99.90;;;;;;5029332;28;20211;-47
2023/03/22 06:03:02;;;;;;;9.43;5.77;;;6.70;99.90;;;;;;5023655;28;20286;-48
2023/03/22 06:05:31;;;;;;;5.20;4.57;;;6.80;99.90;;;;;;5031641;28;20290;-47
2023/03/22 06:08:01;;;;;;;11.90;7.27;;;6.90;99.90;;;;;;5031694;28;20739;-48
2023/03/22 06:10:28;;;;;;;5.70;5.10;;;7.00;99.90;;;;;;5031184;28;20262;-47
2023/03/22 06:12:58;;;;;;;4.53;4.13;;;7.10;99.90;;;;;;5031912;28;20616;-47
2023/03/22 06:15:25;;;;;;;4.33;3.93;;;7.20;99.90;;;;;;5027969;28;20303;-47
2023/03/22 06:17:54;;;;;;;5.73;5.13;;;7.40;99.90;;;;;;5030655;28;20644;-48
2023/03/22 06:20:21;;;;;;;5.00;4.53;;;8.20;99.90;;;;;;5030182;28;20266;-48
2023/03/22 06:22:48;;;;;;;5.97;3.83;;;9.30;99.90;;;;;;5025388;28;20219;-48
2023/03/22 06:25:14;;;;;;;6.83;3.73;;;10.30;99.90;;;;;;5028122;28;20272;-47
2023/03/22 06:27:42;;;;;;;3.33;3.13;;;11.30;99.90;;;;;;5020427;28;20630;-48
2023/03/22 06:30:10;;;;;;;3.43;2.67;;;11.90;99.90;;;;;;5026602;28;20205;-49
2023/03/22 06:32:36;;;;;;;3.20;3.00;;;12.60;99.90;;;;;;5025776;28;20193;-48
2023/03/22 06:35:06;;;;;;;3.13;2.93;;;12.90;99.90;;;;;;5028345;28;20263;-49
2023/03/22 06:37:33;;;;;;;2.50;2.30;;;13.60;99.90;;;;;;5031673;28;20237;-48
2023/03/22 06:40:00;;;;;;;23.80;4.43;;;13.90;99.90;;;;;;5021984;28;20208;-49
2023/03/22 06:42:29;;;;;;;3.60;2.77;;;14.40;99.90;;;;;;5050096;22;20227;-49
2023/03/22 06:44:56;;;;;;;2.03;1.93;;;14.40;99.90;;;;;;5014101;28;20265;-49
2023/03/22 06:47:23;;;;;;;2.57;1.30;;;14.60;99.90;;;;;;5013709;28;20199;-49
2023/03/22 06:49:50;;;;;;;1.70;1.27;;;14.90;99.90;;;;;;5013038;28;20289;-49
2023/03/22 06:52:18;;;;;;;1.60;1.50;;;14.50;99.90;;;;;;5013937;28;20337;-49
2023/03/22 06:54:46;;;;;;;1.23;1.20;;;14.20;99.90;;;;;;5014296;28;20209;-49
2023/03/22 06:57:13;;;;;;;2.53;1.50;;;13.70;99.90;;;;;;5014310;28;20211;-49
2023/03/22 06:59:40;;;;;;;3.33;1.43;;;13.60;99.90;;;;;;5014348;28;20253;-49
2023/03/22 07:02:07;;;;;;;5.97;1.60;;;13.90;99.90;;;;;;5014082;28;20241;-49
2023/03/22 07:04:34;;;;;;;3.07;1.33;;;13.70;99.90;;;;;;5011748;28;20202;-50
2023/03/22 07:07:00;;;;;;;2.20;1.23;;;13.80;99.90;;;;;;5012064;28;20205;-49
2023/03/22 07:09:29;;;;;;;1.47;0.93;;;14.20;99.90;;;;;;5013911;28;20256;-49
2023/03/22 07:11:56;;;;;;;2.60;1.53;;;14.20;99.90;;;;;;5013856;28;20230;-49
2023/03/22 07:14:23;;;;;;;1.80;1.57;;;13.90;99.90;;;;;;5014036;28;20202;-49
2023/03/22 07:16:50;;;;;;;2.60;1.10;;;13.90;99.90;;;;;;5012926;28;20267;-50
2023/03/22 07:19:17;;;;;;;3.30;1.40;;;14.00;99.90;;;;;;5009089;28;20208;-49
2023/03/22 07:21:44;;;;;;;2.67;1.30;;;13.90;99.90;;;;;;5011791;28;20211;-50
2023/03/22 07:24:12;;;;;;;1.27;1.17;;;14.20;99.90;;;;;;5013179;28;20246;-48
2023/03/22 07:26:41;;;;;;;1.43;1.37;;;14.40;99.90;;;;;;5013952;28;20243;-49
2023/03/22 07:29:08;;;;;;;3.07;1.23;;;14.10;99.90;;;;;;5012649;28;20206;-50
2023/03/22 07:31:36;;;;;;;3.13;1.20;;;14.30;99.90;;;;;;5012636;28;20337;-50
2023/03/22 07:34:03;;;;;;;2.20;1.70;;;14.60;99.90;;;;;;5012814;28;20206;-52
2023/03/22 07:36:30;;;;;;;3.23;1.00;;;14.50;99.90;;;;;;5012228;28;20260;-50
2023/03/22 07:38:57;;;;;;;1.83;1.20;;;14.60;99.90;;;;;;5004457;28;20338;-50
2023/03/22 07:41:25;;;;;;;0.90;0.90;;;14.90;99.90;;;;;;5013020;28;20199;-50
2023/03/22 07:43:54;;;;;;;3.03;1.07;;;15.20;99.90;;;;;;5011688;28;20322;-49
2023/03/22 07:46:21;;;;;;;1.27;1.23;;;15.50;99.90;;;;;;5012379;28;20657;-50
2023/03/22 07:48:48;;;;;;;3.00;1.10;;;15.90;99.90;;;;;;5009883;28;20629;-50
2023/03/22 07:51:15;;;;;;;1.00;1.00;;;16.10;99.90;;;;;;5009300;28;20666;-50
2023/03/22 07:53:42;;;;;;;4.67;1.77;;;16.70;99.90;;;;;;5011161;28;20315;-50
2023/03/22 07:56:10;;;;;;;1.97;1.87;;;16.80;99.90;;;;;;5009800;28;20233;-50
2023/03/22 07:58:37;;;;;;;2.87;1.30;;;17.30;99.90;;;;;;5011267;28;20529;-50
2023/03/22 08:01:07;;;;;;;3.43;1.77;;;17.50;99.90;;;;;;5012280;28;20666;-49
2023/03/22 08:03:35;;;;;;;2.47;1.67;;;17.80;99.90;;;;;;5012477;28;20656;-52
2023/03/22 08:06:05;;;;;;;2.33;1.73;;;18.00;99.90;;;;;;5011994;28;20665;-49
2023/03/22 08:08:33;;;;;;;1.33;1.27;;;18.70;99.90;;;;;;5012704;28;20593;-48
2023/03/22 08:11:00;;;;;;;1.77;1.63;;;19.30;99.90;;;;;;5011812;28;20195;-48
2023/03/22 08:13:27;;;;;;;3.53;1.63;;;19.80;99.90;;;;;;5011123;28;20226;-50
2023/03/22 08:15:54;;;;;;;2.13;1.70;;;20.30;99.90;;;;;;5011974;28;20293;-49
2023/03/22 08:18:22;;;;;;;1.43;1.33;;;20.00;99.90;;;;;;5009930;28;20278;-49
2023/03/22 08:20:53;;;;;;;3.73;1.23;;;20.30;99.90;;;;;;5011983;28;20299;-50
2023/03/22 08:23:20;;;;;;;2.07;1.97;;;20.50;99.90;;;;;;5011654;28;20227;-49
2023/03/22 08:25:47;;;;;;;3.00;2.80;;;20.40;99.90;;;;;;5008420;28;20203;-50
2023/03/22 08:28:15;;;;;;;5.30;1.83;;;20.60;99.90;;;;;;5010025;28;20249;-48
2023/03/22 08:30:43;;;;;;;2.20;2.10;;;21.00;99.90;;;;;;5010102;28;20530;-46
2023/03/22 08:33:10;;;;;;;3.40;2.80;;;20.60;99.90;;;;;;5004729;28;20257;-49
2023/03/22 08:35:39;;;;;;;2.70;1.60;;;21.40;99.90;;;;;;5010975;28;20673;-49
2023/03/22 08:38:06;;;;;;;1.30;1.30;;;21.40;99.90;;;;;;5009984;28;20207;-49
2023/03/22 08:40:33;;;;;;;1.87;1.77;;;21.00;99.20;;;;;;5010610;28;20191;-50
2023/03/22 08:43:03;;;;;;;1.00;1.00;;;21.10;99.90;;;;;;5009181;28;20266;-48
2023/03/22 08:45:30;;;;;;;2.00;1.90;;;21.00;97.40;;;;;;5009912;28;20203;-49
2023/03/22 08:48:01;;;;;;;1.57;1.47;;;20.60;97.70;;;;;;5011183;28;20199;-49
2023/03/22 08:50:28;;;;;;;2.20;1.30;;;20.10;97.40;;;;;;5010758;28;20207;-48
2023/03/22 08:52:56;;;;;;;2.40;1.87;;;20.60;97.80;;;;;;5011021;28;20219;-49
2023/03/22 08:55:23;;;;;;;4.03;1.33;;;20.80;96.30;;;;;;5009759;28;20211;-49
2023/03/22 08:57:51;;;;;;;2.40;2.27;;;21.50;95.20;;;;;;5010988;28;20203;-48
2023/03/22 09:00:19;;;;;;;2.87;1.63;;;21.70;94.80;;;;;;5010446;28;20349;-50
2023/03/22 09:02:46;;;;;;;1.73;1.50;;;20.80;97.20;;;;;;5010320;28;20687;-49
2023/03/22 09:05:14;;;;;;;1.93;1.70;;;21.20;96.90;;;;;;5010223;28;20209;-48
2023/03/22 09:07:41;;;;;;;4.40;1.70;;;21.40;96.20;;;;;;5010417;28;20211;-49
2023/03/22 09:10:11;;;;;;;2.43;1.47;;;21.30;96.20;;;;;;5009947;28;20286;-49
2023/03/22 09:12:38;;;;;;;2.33;1.17;;;22.00;95.60;;;;;;5008234;28;20736;-49
2023/03/22 09:15:06;;;;;;;1.93;1.40;;;22.30;95.60;;;;;;5010168;28;20214;-49
2023/03/22 09:17:33;;;;;;;2.70;1.70;;;22.00;97.20;;;;;;5010341;28;20198;-49
2023/03/22 09:20:00;;;;;;;1.50;1.17;;;22.00;96.00;;;;;;5009194;28;20258;-49
2023/03/22 09:22:27;;;;;;;1.92;1.52;;;22.30;94.50;;;;;;5007709;28;21027;-49
2023/03/22 09:24:54;;;;;;;1.77;1.30;;;22.40;95.40;;;;;;5010230;28;20273;-49
2023/03/22 09:27:23;;;;;;;1.37;1.13;;;22.90;95.50;;;;;;5010389;28;20277;-49
2023/03/22 09:29:52;;;;;;;1.60;1.50;;;23.10;93.70;;;;;;5008294;28;20221;-49
2023/03/22 09:32:19;;;;;;;4.40;1.33;;;23.60;94.50;;;;;;5008475;28;20768;-49
2023/03/22 09:34:46;;;;;;;2.00;1.27;;;23.30;95.60;;;;;;5009474;28;20207;-50
2023/03/22 09:37:13;;;;;;;1.23;1.10;;;23.60;94.00;;;;;;5010366;28;20199;-49
2023/03/22 09:39:43;;;;;;;1.67;1.57;;;22.90;95.50;;;;;;5010006;28;20202;-49
2023/03/22 09:42:25;;;;;;;1.13;1.13;;;22.70;92.10;;;;;;5008988;28;20226;-49
2023/03/22 09:44:53;;;;;;;1.97;1.40;;;22.90;93.10;;;;;;5009745;28;20612;-49
2023/03/22 09:47:27;;;;;;;2.03;1.20;;;23.10;92.50;;;;;;5001803;28;20191;-49
2023/03/22 09:50:03;;;;;;;2.57;1.60;;;22.90;93.50;;;;;;5008990;28;20240;-49
2023/03/22 09:52:30;;;;;;;1.90;1.17;;;22.80;93.50;;;;;;5002566;28;20234;-50
2023/03/22 09:54:59;;;;;;;1.80;1.17;;;23.20;93.10;;;;;;5010057;28;20207;-49
2023/03/22 09:57:32;;;;;;;5.70;5.17;;;23.10;93.90;;;;;;5010195;28;20243;-49
2023/03/22 10:00:11;;;;;;;1.37;1.30;;;23.20;94.10;;;;;;5002205;28;20290;-50
2023/03/22 10:02:49;;;;;;;1.53;1.43;;;23.20;93.70;;;;;;5009962;28;20222;-49
2023/03/22 10:05:24;;;;;;;2.77;1.40;;;23.40;92.50;;;;;;5009509;28;20652;-49
2023/03/22 10:08:09;;;;;;;2.53;1.50;;;23.40;93.70;;;;;;5008904;28;20194;-49
2023/03/22 10:10:40;;;;;;;2.63;1.17;;;23.10;91.50;;;;;;5009580;28;20201;-50
2023/03/22 10:13:21;;;;;;;7.50;3.50;;;22.90;92.10;;;;;;5009727;28;20735;-50
2023/03/22 10:15:51;;;;;;;1.30;1.00;;;23.30;92.80;;;;;;5012837;28;20199;-49
2023/03/22 10:18:20;;;;;;;2.20;1.40;;;23.20;93.50;;;;;;5014240;28;20354;-50
2023/03/22 10:20:54;;;;;;;2.30;1.00;;;23.40;92.70;;;;;;5012823;28;20353;-49
2023/03/22 10:23:27;;;;;;;1.17;0.93;;;23.30;91.60;;;;;;5014014;28;20276;-49
2023/03/22 10:25:56;;;;;;;2.20;0.97;;;23.80;92.70;;;;;;5013648;28;20203;-49
2023/03/22 10:28:31;;;;;;;1.80;1.70;;;24.30;93.30;;;;;;5013816;28;20203;-49
2023/03/22 10:30:58;;;;;;;0.87;0.87;;;24.20;93.80;;;;;;5013764;28;20631;-49
2023/03/22 10:33:37;;;;;;;1.67;1.03;;;24.20;93.80;;;;;;5013675;28;20762;-49
2023/03/22 10:36:06;;;;;;;0.97;0.97;;;24.30;91.40;;;;;;5013657;28;20238;-50
2023/03/22 10:38:36;;;;;;;5.70;1.33;;;24.20;92.30;;;;;;5011699;28;20194;-50
2023/03/22 10:41:05;;;;;;;1.20;1.20;;;24.20;92.30;;;;;;5012929;28;20198;-49
2023/03/22 10:43:36;;;;;;;2.63;1.20;;;24.30;91.40;;;;;;5012476;28;20310;-49
2023/03/22 10:46:06;;;;;;;0.90;0.90;;;23.90;90.50;;;;;;5011849;28;20238;-49
2023/03/22 10:48:36;;;;;;;1.50;1.40;;;23.30;89.60;;;;;;5012682;28;20200;-49
2023/03/22 10:51:04;;;;;;;2.10;2.00;;;23.10;91.30;;;;;;5011139;28;20229;-50
2023/03/22 10:53:38;;;;;;;4.53;3.10;;;23.40;88.80;;;;;;5011822;28;20590;-50
2023/03/22 10:56:06;;;;;;;2.17;2.10;;;23.40;91.60;;;;;;5013036;28;20269;-49
2023/03/22 10:58:35;;;;;;;2.17;2.07;;;23.30;92.00;;;;;;5011700;28;20650;-49
2023/03/22 11:01:07;;;;;;;2.40;2.30;;;22.20;93.20;;;;;;5012063;28;20289;-48
2023/03/22 11:03:38;;;;;;;3.63;2.63;;;21.90;94.00;;;;;;5012876;28;20223;-49
2023/03/22 11:06:09;;;;;;;3.53;3.33;;;21.70;94.70;;;;;;5012218;28;20210;-49
2023/03/22 11:08:42;;;;;;;4.43;4.13;;;21.60;95.80;;;;;;5012202;28;20653;-49
2023/03/22 11:11:20;;;;;;;4.87;4.67;;;21.00;95.50;;;;;;5011181;28;20214;-48
2023/03/22 11:14:00;;;;;;;5.10;4.57;;;20.50;96.30;;;;;;5012461;28;20327;-49
2023/03/22 11:16:28;;;;;;;5.03;3.23;;;19.80;96.40;;;;;;5010889;28;20198;-49
2023/03/22 11:18:56;;;;;;;3.33;3.00;;;19.80;96.60;;;;;;5012630;28;20261;-49
2023/03/22 11:21:28;;;;;;;3.50;2.87;;;19.90;95.80;;;;;;5013106;28;20246;-49
2023/03/22 11:23:58;;;;;;;2.80;2.60;;;19.70;95.50;;;;;;5012127;28;20226;-49
2023/03/22 11:26:29;;;;;;;3.30;2.73;;;19.30;95.70;;;;;;5010824;28;20200;-49
2023/03/22 11:29:05;;;;;;;2.60;2.40;;;19.30;97.80;;;;;;5009638;28;20604;-48
2023/03/22 11:31:55;;;;;;;2.90;2.70;;;19.10;97.10;;;;;;5013069;28;20726;-49
2023/03/22 11:34:25;;;;;;;2.83;2.73;;;19.20;97.00;;;;;;4994745;28;20266;-49
2023/03/22 11:36:55;;;;;;;6.00;3.43;;;19.30;97.30;;;;;;5012995;28;20207;-48
2023/03/22 11:39:24;;;;;;;3.60;3.30;;;19.10;96.80;;;;;;5012655;28;20787;-49
2023/03/22 11:41:53;;;;;;;3.23;3.03;;;19.00;98.20;;;;;;5012692;28;20203;-49
2023/03/22 11:44:23;;;;;;;2.93;2.90;;;19.10;95.10;;;;;;5011119;28;20219;-49
2023/03/22 11:46:54;;;;;;;3.07;2.93;;;19.10;95.00;;;;;;5012302;28;20199;-49
2023/03/22 11:49:25;;;;;;;3.70;2.90;;;19.00;95.20;;;;;;5012468;28;20207;-50
2023/03/22 11:51:53;;;;;;;2.80;2.63;;;18.90;95.40;;;;;;5012462;28;20211;-49
2023/03/22 11:54:28;;;;;;;3.30;3.10;;;18.90;96.90;;;;;;5012430;28;20203;-49
2023/03/22 11:57:00;;;;;;;3.70;3.60;;;18.90;95.70;;;;;;5012632;28;20206;-49
2023/03/22 11:59:30;;;;;;;3.23;3.03;;;18.90;95.40;;;;;;5012268;28;20553;-48
2023/03/22 12:02:03;;;;;;;3.50;3.20;;;19.00;95.50;;;;;;5011864;28;20270;-49
2023/03/22 12:04:34;;;;;;;2.90;2.70;;;19.10;95.60;;;;;;5012485;28;20219;-48
2023/03/22 12:07:06;;;;;;;3.70;3.40;;;19.10;96.70;;;;;;5012364;28;20211;-49
2023/03/22 12:09:40;;;;;;;4.23;3.13;;;19.10;96.50;;;;;;5012114;28;20579;-48
2023/03/22 12:12:15;;;;;;;3.20;3.00;;;19.00;98.60;;;;;;5011604;28;20256;-48
2023/03/22 12:14:50;;;;;;;3.10;2.77;;;19.10;97.00;;;;;;5011003;28;20281;-48
2023/03/22 12:17:26;;;;;;;5.13;3.10;;;19.10;95.60;;;;;;5011387;28;20207;-48
2023/03/22 12:20:05;;;;;;;2.70;2.60;;;19.20;97.00;;;;;;5011380;28;20214;-49
2023/03/22 12:22:34;;;;;;;4.30;4.00;;;19.00;97.10;;;;;;5011857;28;20265;-48
2023/03/22 12:25:02;;;;;;;5.93;3.50;;;18.60;97.90;;;;;;5005377;28;20245;-48
2023/03/22 12:27:33;;;;;;;5.50;3.90;;;18.60;98.90;;;;;;5011240;28;20657;-48
2023/03/22 12:30:06;;;;;;;7.07;4.80;;;18.70;98.60;;;;;;5011559;28;20728;-49
2023/03/22 12:32:37;;;;;;;7.23;3.00;;;18.70;98.70;;;;;;5011818;28;20229;-49
2023/03/22 12:35:07;;;;;;;3.93;3.63;;;18.70;99.80;;;;;;5010554;28;20640;-49
2023/03/22 12:37:37;;;;;;;4.13;3.93;;;18.70;99.90;;;;;;5011594;28;20215;-48
2023/03/22 12:40:08;;;;;;;3.47;3.37;;;18.70;99.20;;;;;;5011561;28;20743;-48
2023/03/22 12:42:41;;;;;;;4.30;4.00;;;18.60;98.60;;;;;;5011797;28;20235;-47
2023/03/22 12:45:17;;;;;;;3.53;3.30;;;18.70;99.90;;;;;;5010592;28;20227;-49
2023/03/22 12:47:49;;;;;;;3.73;3.53;;;18.80;98.90;;;;;;5011253;28;20207;-48
2023/03/22 12:50:19;;;;;;;4.00;3.70;;;18.80;99.50;;;;;;5050527;22;20233;-47
2023/03/22 12:52:49;;;;;;;3.50;3.30;;;18.80;98.20;;;;;;5029666;28;20206;-46
2023/03/22 12:55:24;;;;;;;3.43;3.30;;;18.50;98.20;;;;;;5037921;28;20260;-47
2023/03/22 12:57:53;;;;;;;5.60;5.13;;;18.50;98.70;;;;;;5030633;28;20264;-48
2023/03/22 13:00:27;;;;;;;3.97;3.77;;;18.50;99.50;;;;;;5031162;28;20573;-48
2023/03/22 13:03:00;;;;;;;3.27;3.17;;;18.60;99.60;;;;;;5032125;28;20743;-46
2023/03/22 13:05:29;;;;;;;3.63;3.43;;;18.80;99.90;;;;;;5032662;28;20564;-47